Kerrville, Texas
Current Conditions -  °F | °C
As of 8:15 PM on Thursday 18 Dec 2014 (Local Time) from KERV Reporting Station
Overcast Overcast  
Wind Chill: 59°   Ceiling: 600
Heat Index: 59°   Visibility: 7mi
Dew Point: 57°   Wind: 5mph
Humidity: 93%   Direction: 110°ESE
Pressure: 30.04"   Gusts: NA
Location:  30.05°N, 99.14°W
Report Text: KERV 190215Z AUTO 11004KT 7SM OVC006 15/14 A3004 RMK AO2 T01480137
Loading
Personal Weather Stations






























Interactive Weather Map New forecast layout! Learn more

10-Day Weather Forecast

Advertisements
Track Severe Weather on mobile